Time;durP1;ratioP1;P1;durP2;ratioP2;P2;SDS_P1;SDS_P2;PMS_P1;PMS_P2;Temp;Humidity;BMP_temperature;BMP_pressure;BME280_temperature;BME280_humidity;BME280_pressure;Samples;Min_cycle;Max_cycle;Signal;HPM_P1;HPM_P2
2022/09/03 00:02:17;;;;;;;3.58;1.30;;;21.80;42.00;;;;;;5075715;28;20051;-95
2022/09/03 00:05:18;;;;;;;3.50;1.30;;;21.70;42.10;;;;;;5054524;28;20045;-93
2022/09/03 00:07:55;;;;;;;3.88;1.15;;;21.70;42.20;;;;;;5076038;28;20511;-92
2022/09/03 00:10:28;;;;;;;3.47;0.98;;;21.60;42.20;;;;;;5075889;28;20055;-94
2022/09/03 00:13:01;;;;;;;4.00;1.00;;;21.60;42.20;;;;;;5075561;28;20486;-94
2022/09/03 00:15:34;;;;;;;2.40;1.00;;;21.60;42.30;;;;;;5075947;28;20513;-93
2022/09/03 00:18:19;;;;;;;2.17;1.00;;;21.60;42.40;;;;;;5075879;28;20044;-93
2022/09/03 00:20:56;;;;;;;2.45;1.20;;;21.50;42.30;;;;;;5075845;28;20135;-94
2022/09/03 00:23:26;;;;;;;2.38;1.25;;;21.60;42.40;;;;;;5075727;28;20101;-94
2022/09/03 00:26:46;;;;;;;3.80;1.40;;;21.60;42.40;;;;;;5076272;28;20497;-93
2022/09/03 00:29:23;;;;;;;2.17;1.20;;;21.50;43.30;;;;;;5075563;28;20048;-93
2022/09/03 00:31:57;;;;;;;3.30;1.30;;;21.50;42.50;;;;;;5075425;28;20040;-92
2022/09/03 00:34:44;;;;;;;3.05;1.13;;;21.50;42.60;;;;;;5075438;28;20127;-93
2022/09/03 00:37:48;;;;;;;2.58;1.20;;;21.40;42.70;;;;;;5076029;28;20494;-95
2022/09/03 00:40:43;;;;;;;3.35;1.20;;;21.30;42.60;;;;;;5075700;28;20072;-95
2022/09/03 00:43:42;;;;;;;4.22;1.30;;;21.40;42.60;;;;;;5075555;28;20052;-96
2022/09/03 00:46:19;;;;;;;2.03;1.20;;;21.30;42.60;;;;;;5074777;28;20416;-94
2022/09/03 00:49:19;;;;;;;3.00;1.50;;;21.40;42.50;;;;;;5075215;28;20131;-96
2022/09/03 00:52:11;;;;;;;3.28;0.95;;;21.30;42.70;;;;;;5075078;28;20083;-93
2022/09/03 00:54:54;;;;;;;1.40;1.20;;;21.30;42.70;;;;;;5074777;28;20071;-95
2022/09/03 00:57:57;;;;;;;3.35;1.13;;;21.30;42.80;;;;;;5074585;28;20417;-94
2022/09/03 01:00:23;;;;;;;4.07;1.13;;;21.30;42.90;;;;;;5074260;28;20137;-94
2022/09/03 01:03:06;;;;;;;3.00;1.20;;;21.40;42.80;;;;;;5074275;28;20137;-93
2022/09/03 01:06:07;;;;;;;3.65;1.20;;;21.30;42.90;;;;;;5074662;28;20047;-94
2022/09/03 01:08:54;;;;;;;3.60;1.30;;;21.20;42.80;;;;;;5038625;28;20468;-94
2022/09/03 01:11:46;;;;;;;1.30;1.10;;;21.30;42.90;;;;;;5074971;28;20074;-92
2022/09/03 01:14:41;;;;;;;1.20;1.05;;;21.20;43.10;;;;;;5074710;28;20045;-94
2022/09/03 01:17:47;;;;;;;3.40;1.20;;;21.20;43.20;;;;;;5074623;28;20188;-94
2022/09/03 01:20:44;;;;;;;2.28;1.02;;;21.10;43.20;;;;;;5075111;28;20185;-93
2022/09/03 01:23:34;;;;;;;2.10;1.05;;;21.10;43.20;;;;;;5074868;28;20079;-93
2022/09/03 01:26:09;;;;;;;2.92;1.25;;;21.10;43.10;;;;;;5074373;28;20041;-93
2022/09/03 01:28:53;;;;;;;1.73;1.05;;;21.10;43.30;;;;;;5074039;28;20045;-93
2022/09/03 01:31:25;;;;;;;;;;;21.00;43.30;;;;;;5074488;28;20087;-91
2022/09/03 01:34:21;;;;;;;1.90;1.20;;;21.20;43.10;;;;;;5056678;28;19954;-93
2022/09/03 01:37:02;;;;;;;2.47;1.20;;;21.10;43.10;;;;;;5073028;28;20044;-93
2022/09/03 01:39:46;;;;;;;1.50;1.20;;;21.00;43.40;;;;;;5074644;28;20528;-96
2022/09/03 01:42:50;;;;;;;2.00;1.00;;;20.90;43.70;;;;;;5074263;28;20032;-93
2022/09/03 01:45:43;;;;;;;1.67;1.20;;;20.90;43.70;;;;;;5073998;28;20060;-93
2022/09/03 01:48:25;;;;;;;4.60;1.17;;;20.90;43.70;;;;;;5057865;28;20491;-93
2022/09/03 01:51:27;;;;;;;2.15;1.20;;;20.90;43.80;;;;;;5073999;28;20134;-94
2022/09/03 01:54:07;;;;;;;2.78;1.08;;;20.80;43.90;;;;;;5073889;28;20040;-93
2022/09/03 01:56:49;;;;;;;1.63;1.20;;;20.90;43.80;;;;;;5073562;28;20037;-93
2022/09/03 01:59:52;;;;;;;2.15;1.10;;;20.80;44.00;;;;;;5073732;28;20040;-93
2022/09/03 02:02:24;;;;;;;5.68;1.50;;;20.80;44.20;;;;;;5073321;28;20036;-93
2022/09/03 02:04:59;;;;;;;2.53;1.10;;;20.90;44.10;;;;;;5073914;28;20040;-93
2022/09/03 02:07:33;;;;;;;2.90;1.27;;;20.90;44.30;;;;;;5073553;28;20047;-93
2022/09/03 02:10:10;;;;;;;1.95;1.10;;;20.90;44.20;;;;;;5073171;28;20049;-93
2022/09/03 02:12:59;;;;;;;3.83;1.33;;;20.90;44.30;;;;;;5073346;28;20127;-94
2022/09/03 02:15:31;;;;;;;1.88;1.15;;;20.80;44.40;;;;;;5073475;28;20044;-92
2022/09/03 02:18:01;;;;;;;3.03;1.65;;;20.90;44.30;;;;;;5073024;28;20056;-93
2022/09/03 02:20:32;;;;;;;2.80;1.20;;;20.90;44.30;;;;;;5073510;28;20055;-93
2022/09/03 02:22:59;;;;;;;2.05;1.00;;;20.90;44.40;;;;;;5073310;28;20098;-92
2022/09/03 02:25:35;;;;;;;3.85;1.20;;;20.90;44.30;;;;;;5073387;28;20051;-92
2022/09/03 02:28:24;;;;;;;2.55;1.10;;;20.90;44.40;;;;;;5072941;28;20417;-93
2022/09/03 02:30:51;;;;;;;1.88;0.90;;;20.90;44.40;;;;;;5073302;28;20139;-96
2022/09/03 02:33:17;;;;;;;3.55;1.25;;;20.90;44.30;;;;;;5073106;28;20082;-94
2022/09/03 02:35:48;;;;;;;3.42;1.10;;;20.90;44.20;;;;;;5073431;28;20036;-92
2022/09/03 02:38:27;;;;;;;1.80;0.90;;;20.90;44.40;;;;;;5073031;28;20044;-94
2022/09/03 02:40:53;;;;;;;2.22;1.08;;;20.90;44.30;;;;;;5072754;28;20039;-94
2022/09/03 02:43:41;;;;;;;2.80;1.10;;;20.90;44.20;;;;;;5072986;28;20052;-93
2022/09/03 02:46:23;;;;;;;2.22;1.05;;;20.90;44.40;;;;;;5072554;28;20493;-93
2022/09/03 02:48:48;;;;;;;2.47;1.35;;;20.90;44.20;;;;;;5072795;28;20084;-93
2022/09/03 02:51:44;;;;;;;1.75;1.00;;;21.00;44.10;;;;;;5073364;28;20419;-94
2022/09/03 02:54:27;;;;;;;2.13;1.08;;;20.90;44.30;;;;;;5073980;28;20296;-94
2022/09/03 02:56:53;;;;;;;2.08;1.15;;;20.90;44.30;;;;;;5073185;28;20049;-94
2022/09/03 02:59:47;;;;;;;2.65;1.17;;;21.00;44.30;;;;;;5072753;28;20383;-93
2022/09/03 03:02:12;;;;;;;3.22;1.33;;;20.80;44.40;;;;;;5072521;28;20040;-92
2022/09/03 03:04:54;;;;;;;2.65;1.10;;;21.00;44.30;;;;;;5073186;28;20049;-94
2022/09/03 03:07:20;;;;;;;5.95;1.23;;;20.80;44.40;;;;;;5072527;28;20111;-91
2022/09/03 03:09:46;;;;;;;2.80;1.27;;;20.90;44.30;;;;;;5072666;28;20056;-92
2022/09/03 03:12:12;;;;;;;3.53;1.30;;;20.90;44.40;;;;;;5072762;28;20044;-93
2022/09/03 03:14:48;;;;;;;3.67;1.25;;;20.90;44.40;;;;;;5072950;28;20071;-94
2022/09/03 03:17:16;;;;;;;1.20;1.02;;;20.90;44.60;;;;;;5071309;28;20547;-93
2022/09/03 03:19:48;;;;;;;1.90;1.25;;;20.90;44.40;;;;;;5072545;28;20083;-94
2022/09/03 03:22:14;;;;;;;1.70;1.30;;;20.90;44.50;;;;;;5074890;28;20048;-94
2022/09/03 03:24:43;;;;;;;2.55;1.10;;;21.00;44.40;;;;;;5076862;28;20040;-92
2022/09/03 03:27:10;;;;;;;1.23;1.13;;;20.90;44.50;;;;;;5076716;28;20104;-93
2022/09/03 03:29:36;;;;;;;4.00;1.85;;;20.90;44.40;;;;;;5076351;28;20047;-93
2022/09/03 03:32:01;;;;;;;2.10;1.45;;;20.90;44.60;;;;;;5076694;28;20084;-92
2022/09/03 03:34:27;;;;;;;2.58;1.15;;;20.90;44.60;;;;;;5076422;28;20481;-92
2022/09/03 03:36:53;;;;;;;1.95;1.20;;;20.90;44.60;;;;;;5076359;28;20124;-92
2022/09/03 03:39:19;;;;;;;1.63;1.20;;;20.90;44.60;;;;;;5076366;28;20051;-92
2022/09/03 03:41:45;;;;;;;1.67;1.13;;;20.90;44.80;;;;;;5076248;28;20400;-92
2022/09/03 03:44:16;;;;;;;2.22;1.27;;;20.80;44.80;;;;;;5076419;28;20132;-92
2022/09/03 03:46:47;;;;;;;1.73;1.48;;;20.80;45.60;;;;;;5075620;28;20155;-93
2022/09/03 03:49:13;;;;;;;1.40;1.30;;;20.70;44.90;;;;;;5076046;28;20075;-93
2022/09/03 03:51:39;;;;;;;2.05;1.15;;;20.70;45.00;;;;;;5076220;28;20045;-93
2022/09/03 03:54:05;;;;;;;3.10;1.30;;;20.70;45.10;;;;;;5076614;28;20052;-92
2022/09/03 03:56:37;;;;;;;1.75;1.40;;;20.70;45.30;;;;;;5075845;28;20037;-93
2022/09/03 03:59:05;;;;;;;2.08;1.20;;;20.50;45.30;;;;;;5076004;28;20498;-92
2022/09/03 04:01:30;;;;;;;3.42;1.30;;;20.50;45.40;;;;;;5075770;28;20056;-93
2022/09/03 04:03:59;;;;;;;3.03;1.60;;;20.50;45.50;;;;;;5075865;28;20044;-92
2022/09/03 04:06:25;;;;;;;4.35;1.60;;;20.50;45.60;;;;;;5076138;28;20067;-92
2022/09/03 04:08:55;;;;;;;3.95;1.42;;;20.50;45.70;;;;;;5075945;28;20094;-92
2022/09/03 04:11:27;;;;;;;2.67;1.42;;;20.40;45.90;;;;;;5075804;28;20053;-93
2022/09/03 04:13:53;;;;;;;2.03;1.27;;;20.30;45.80;;;;;;5075583;28;20390;-93
2022/09/03 04:16:21;;;;;;;1.50;1.40;;;20.30;45.90;;;;;;5075958;28;20037;-92
2022/09/03 04:18:48;;;;;;;2.45;1.33;;;20.30;46.00;;;;;;5075802;28;20047;-91
2022/09/03 04:21:28;;;;;;;2.78;1.70;;;20.30;46.10;;;;;;5075426;28;20486;-92
2022/09/03 04:23:55;;;;;;;2.47;1.50;;;20.20;46.20;;;;;;5075718;28;20139;-92
2022/09/03 04:26:32;;;;;;;4.05;1.75;;;20.20;46.20;;;;;;5076133;28;20127;-93
2022/09/03 04:29:03;;;;;;;2.72;1.48;;;20.10;46.30;;;;;;5075602;28;20079;-92
2022/09/03 04:31:29;;;;;;;1.73;1.63;;;20.10;46.30;;;;;;5075219;28;20041;-92
2022/09/03 04:33:55;;;;;;;3.05;1.80;;;20.10;46.50;;;;;;5075379;28;20055;-93
2022/09/03 04:36:30;;;;;;;3.35;1.60;;;20.00;46.60;;;;;;5075757;28;20289;-92
2022/09/03 04:38:59;;;;;;;1.67;1.58;;;19.90;46.70;;;;;;5074806;28;20045;-92
2022/09/03 04:41:30;;;;;;;2.80;1.50;;;19.90;47.20;;;;;;5075155;28;20047;-93
2022/09/03 04:43:58;;;;;;;2.90;1.80;;;19.90;47.00;;;;;;5075054;28;20091;-93
2022/09/03 04:46:32;;;;;;;2.40;1.42;;;19.90;47.00;;;;;;5075179;28;20119;-91
2022/09/03 04:49:00;;;;;;;5.25;1.75;;;19.90;47.10;;;;;;5075352;28;20297;-92
2022/09/03 04:51:28;;;;;;;3.85;1.90;;;19.80;47.20;;;;;;5075447;28;20048;-92
2022/09/03 04:53:57;;;;;;;4.28;1.90;;;19.80;47.30;;;;;;5074623;28;20049;-93
2022/09/03 04:56:31;;;;;;;3.38;2.00;;;19.80;47.50;;;;;;5075050;28;20045;-92
2022/09/03 04:59:05;;;;;;;4.05;1.80;;;19.60;47.50;;;;;;5075058;28;20040;-93
2022/09/03 05:01:32;;;;;;;3.13;1.90;;;19.70;47.70;;;;;;5074417;28;20505;-92
2022/09/03 05:04:20;;;;;;;5.60;2.20;;;19.70;47.70;;;;;;5075109;28;20063;-93
2022/09/03 05:06:46;;;;;;;2.88;1.88;;;19.60;47.90;;;;;;5074321;28;20082;-92
2022/09/03 05:09:11;;;;;;;4.55;2.10;;;19.70;47.90;;;;;;5074843;28;20044;-93
2022/09/03 05:11:37;;;;;;;2.35;2.00;;;19.70;48.10;;;;;;5074697;28;20044;-93
2022/09/03 05:14:13;;;;;;;2.97;1.80;;;19.60;48.20;;;;;;5074611;28;20040;-93
2022/09/03 05:16:47;;;;;;;6.50;1.95;;;19.60;48.40;;;;;;5074493;28;20087;-92
2022/09/03 05:19:24;;;;;;;3.65;2.13;;;19.50;48.50;;;;;;5074638;28;20048;-92
2022/09/03 05:21:59;;;;;;;2.65;1.88;;;19.50;48.60;;;;;;5074401;28;20048;-93
2022/09/03 05:24:39;;;;;;;6.03;2.33;;;19.50;48.70;;;;;;5074997;28;20108;-93
2022/09/03 05:27:09;;;;;;;5.45;2.40;;;19.50;48.80;;;;;;5074747;28;20060;-93
2022/09/03 05:29:54;;;;;;;3.30;2.15;;;19.60;48.90;;;;;;5073971;28;20041;-92
2022/09/03 05:32:19;;;;;;;3.05;1.85;;;19.50;49.10;;;;;;5074644;28;20044;-92
2022/09/03 05:34:45;;;;;;;3.78;2.00;;;19.60;49.00;;;;;;5073911;28;21071;-92
2022/09/03 05:37:23;;;;;;;2.42;2.22;;;19.60;49.20;;;;;;5074325;28;20048;-92
2022/09/03 05:39:48;;;;;;;2.42;2.10;;;19.50;49.30;;;;;;5074461;28;20052;-92
2022/09/03 05:42:14;;;;;;;2.55;1.90;;;19.60;49.20;;;;;;5074121;28;20098;-93
2022/09/03 05:44:42;;;;;;;3.75;2.38;;;19.60;50.00;;;;;;5073412;28;20040;-94
2022/09/03 05:47:11;;;;;;;2.65;2.28;;;19.50;49.40;;;;;;5074408;28;20086;-94
2022/09/03 05:49:37;;;;;;;4.50;2.53;;;19.60;49.60;;;;;;5073788;28;20041;-92
2022/09/03 05:52:02;;;;;;;3.30;2.05;;;19.60;49.60;;;;;;5072603;28;20043;-92
2022/09/03 05:54:28;;;;;;;3.05;2.03;;;19.60;49.70;;;;;;5072360;28;20041;-93
2022/09/03 05:56:54;;;;;;;3.17;2.08;;;19.60;49.80;;;;;;5072606;28;20051;-93
2022/09/03 05:59:19;;;;;;;3.35;2.28;;;19.60;49.80;;;;;;5072671;28;20037;-93
2022/09/03 06:01:45;;;;;;;3.20;2.00;;;19.60;49.90;;;;;;5071992;28;20049;-92
2022/09/03 06:04:15;;;;;;;5.10;2.60;;;19.60;49.90;;;;;;5072710;28;20059;-93
2022/09/03 06:06:58;;;;;;;7.63;2.28;;;19.50;50.00;;;;;;5074165;28;20493;-92
2022/09/03 06:09:24;;;;;;;4.72;2.50;;;19.50;50.30;;;;;;5072338;28;20041;-92
2022/09/03 06:11:50;;;;;;;5.05;1.90;;;19.50;50.00;;;;;;5072010;28;20044;-93
2022/09/03 06:14:16;;;;;;;4.57;2.03;;;19.60;50.10;;;;;;5071087;28;20045;-93
2022/09/03 06:16:51;;;;;;;2.53;2.20;;;19.60;50.40;;;;;;5071441;28;20072;-92
2022/09/03 06:19:20;;;;;;;4.10;2.38;;;19.60;50.40;;;;;;5072687;28;20088;-93
2022/09/03 06:21:46;;;;;;;3.70;2.25;;;19.60;50.40;;;;;;5090943;28;20036;-92
2022/09/03 06:24:15;;;;;;;3.47;2.55;;;19.60;50.30;;;;;;5087425;28;20036;-93
2022/09/03 06:26:41;;;;;;;5.22;2.22;;;19.60;50.50;;;;;;5055770;28;20047;-92
2022/09/03 06:29:09;;;;;;;4.60;2.40;;;19.70;50.50;;;;;;5056808;28;20552;-93
2022/09/03 06:31:50;;;;;;;5.47;2.00;;;19.70;50.60;;;;;;5056353;28;20044;-93
2022/09/03 06:34:17;;;;;;;3.60;2.08;;;19.70;50.80;;;;;;5056005;28;20505;-92
2022/09/03 06:36:53;;;;;;;2.83;2.20;;;19.80;50.50;;;;;;5056335;28;20051;-93
2022/09/03 06:39:19;;;;;;;2.53;1.90;;;19.80;50.60;;;;;;5055740;28;20192;-91
2022/09/03 06:41:50;;;;;;;2.70;2.00;;;20.00;50.50;;;;;;5055371;28;20135;-93
2022/09/03 06:44:56;;;;;;;5.13;2.33;;;20.00;50.40;;;;;;5056401;28;20083;-94
2022/09/03 06:47:22;;;;;;;2.88;1.95;;;20.00;50.60;;;;;;5056043;28;20056;-93
2022/09/03 06:49:47;;;;;;;4.40;2.03;;;20.30;50.20;;;;;;5056110;28;20044;-91
2022/09/03 06:52:35;;;;;;;3.45;1.95;;;20.30;50.10;;;;;;5056299;28;20055;-93
2022/09/03 06:55:12;;;;;;;6.15;2.20;;;20.30;50.30;;;;;;5056987;28;20067;-92
2022/09/03 06:58:01;;;;;;;4.78;2.17;;;20.60;50.20;;;;;;5055735;28;20045;-93
2022/09/03 07:00:37;;;;;;;3.35;1.83;;;20.60;50.30;;;;;;5052934;28;20140;-95
2022/09/03 07:03:04;;;;;;;2.85;2.10;;;20.70;49.80;;;;;;5055672;28;20052;-91
2022/09/03 07:05:36;;;;;;;7.28;5.50;;;20.90;49.50;;;;;;5056942;28;20048;-94
2022/09/03 07:08:33;;;;;;;3.67;3.08;;;21.00;49.60;;;;;;5056743;28;20603;-94
2022/09/03 07:11:12;;;;;;;7.72;2.05;;;21.10;49.30;;;;;;5054497;28;20045;-94
2022/09/03 07:13:41;;;;;;;2.22;1.55;;;21.30;48.60;;;;;;5052988;28;20048;-91
2022/09/03 07:16:25;;;;;;;3.03;1.83;;;21.40;48.50;;;;;;5055119;28;20710;-93
2022/09/03 07:19:07;;;;;;;3.30;1.80;;;21.40;48.40;;;;;;5057381;28;20080;-96
2022/09/03 07:21:40;;;;;;;3.50;1.88;;;21.60;48.10;;;;;;5056595;28;20091;-93
2022/09/03 07:24:29;;;;;;;7.55;1.90;;;21.80;47.50;;;;;;5088037;28;20065;-96
2022/09/03 07:26:55;;;;;;;4.60;1.90;;;21.80;47.70;;;;;;5057333;28;20397;-95
2022/09/03 07:29:42;;;;;;;7.20;1.90;;;22.10;47.20;;;;;;5076317;28;20060;-96
2022/09/03 07:32:36;;;;;;;2.83;1.73;;;22.00;47.00;;;;;;5093234;28;20028;-96
2022/09/03 07:35:08;;;;;;;3.40;1.80;;;22.10;46.80;;;;;;5082121;28;20098;-92
2022/09/03 07:37:55;;;;;;;5.10;1.80;;;22.30;46.10;;;;;;5094760;28;20040;-96
2022/09/03 07:40:43;;;;;;;2.10;1.75;;;22.30;46.20;;;;;;5096610;28;20044;-96
2022/09/03 07:43:30;;;;;;;5.00;1.70;;;22.30;46.10;;;;;;5098246;28;20044;-96
2022/09/03 07:46:28;;;;;;;2.17;1.60;;;22.50;45.90;;;;;;5087150;28;20139;-94
2022/09/03 07:49:04;;;;;;;3.60;1.48;;;22.50;45.70;;;;;;5061558;28;20044;-94
2022/09/03 07:51:53;;;;;;;2.67;1.70;;;22.80;45.30;;;;;;5097377;28;20047;-95
2022/09/03 07:54:26;;;;;;;3.88;1.80;;;22.80;45.60;;;;;;5060457;28;20094;-94
2022/09/03 07:56:55;;;;;;;3.45;1.58;;;22.90;45.20;;;;;;5093045;28;20091;-94
2022/09/03 08:02:51;;;;;;;2.40;1.63;;;23.10;45.10;;;;;;5051282;28;20048;-93
2022/09/03 08:05:31;;;;;;;2.70;1.40;;;23.40;44.80;;;;;;5051634;28;20041;-92
2022/09/03 08:08:35;;;;;;;2.17;1.63;;;23.40;44.80;;;;;;5069040;28;20052;-94
2022/09/03 08:11:19;;;;;;;3.10;1.55;;;23.50;44.40;;;;;;5054272;28;20120;-92
2022/09/03 08:14:37;;;;;;;1.55;1.38;;;23.70;44.20;;;;;;5077981;28;20052;-96
2022/09/03 08:17:06;;;;;;;2.47;1.40;;;23.70;44.20;;;;;;5061846;28;20416;-93
2022/09/03 08:22:29;;;;;;;2.22;1.30;;;24.00;43.60;;;;;;5062772;28;20048;-94
2022/09/03 08:28:30;;;;;;;2.55;1.42;;;24.10;43.10;;;;;;5079032;28;20040;-93
2022/09/03 08:31:31;;;;;;;2.50;1.23;;;24.30;43.00;;;;;;5064365;28;20397;-93
2022/09/03 08:37:34;;;;;;;2.63;1.63;;;24.50;42.60;;;;;;5082413;28;20060;-94
2022/09/03 08:40:08;;;;;;;4.28;1.48;;;24.50;41.90;;;;;;5062944;28;20066;-96
2022/09/03 08:43:18;;;;;;;1.75;1.23;;;24.50;42.00;;;;;;5060967;28;20044;-95
2022/09/03 08:50:54;;;;;;;1.20;1.10;;;24.80;42.00;;;;;;5096900;28;20058;-95
2022/09/03 08:53:49;;;;;;;3.28;1.30;;;25.10;41.90;;;;;;5100319;28;20097;-95
2022/09/03 08:56:41;;;;;;;3.95;1.88;;;25.10;41.70;;;;;;5114010;28;20047;-92
2022/09/03 08:59:31;;;;;;;4.00;1.70;;;25.30;41.30;;;;;;5100257;28;20201;-96
2022/09/03 09:06:26;;;;;;;3.97;1.50;;;25.40;41.00;;;;;;5103368;28;20058;-96
2022/09/03 09:09:30;;;;;;;3.28;1.27;;;25.60;41.10;;;;;;5102041;28;20147;-95
2022/09/03 09:23:38;;;;;;;2.10;1.40;;;26.10;40.40;;;;;;5083883;28;20044;-96
2022/09/03 09:26:35;;;;;;;;;;;;;;;;;;;;;
2022/09/03 09:29:47;;;;;;;3.50;1.40;;;26.20;40.00;;;;;;5083577;28;20078;-96
2022/09/03 09:33:05;;;;;;;6.45;1.38;;;26.40;39.60;;;;;;5060952;28;20725;-92
2022/09/03 09:36:14;;;;;;;2.30;1.40;;;26.50;39.30;;;;;;4974852;28;20053;-94
2022/09/03 09:38:47;;;;;;;2.10;1.50;;;26.70;39.30;;;;;;5035334;28;20048;-92
2022/09/03 09:49:16;;;;;;;8.57;1.88;;;27.10;38.50;;;;;;5034103;28;20105;-96
2022/09/03 09:52:38;;;;;;;3.88;1.23;;;27.20;38.40;;;;;;5062618;28;20052;-95
2022/09/03 10:10:27;;;;;;;2.20;1.17;;;27.60;37.70;;;;;;5062548;28;20540;-94
2022/09/03 10:17:19;;;;;;;6.38;1.42;;;27.90;37.30;;;;;;5119717;28;20514;-93
2022/09/03 10:31:14;;;;;;;3.55;1.27;;;28.50;36.30;;;;;;5089062;28;20093;-96
2022/09/03 10:53:41;;;;;;;3.20;1.33;;;29.30;35.20;;;;;;5049089;28;20072;-92
2022/09/03 10:57:02;;;;;;;3.30;1.40;;;29.40;34.60;;;;;;5110517;23;20086;-95
2022/09/03 11:07:41;;;;;;;4.13;1.10;;;29.80;33.60;;;;;;5065069;28;20067;-96
2022/09/03 11:14:24;;;;;;;5.07;1.40;;;30.00;32.20;;;;;;5062687;28;20053;-95
2022/09/03 11:17:44;;;;;;;;;;;;;;;;;;;;;
2022/09/03 11:20:49;;;;;;;2.92;1.25;;;30.00;32.30;;;;;;5063510;28;20025;-96
2022/09/03 11:27:53;;;;;;;3.63;1.30;;;30.30;32.50;;;;;;5066396;28;20020;-96
2022/09/03 11:41:30;;;;;;;4.47;1.42;;;30.90;31.70;;;;;;5049172;28;20572;-96
2022/09/03 11:48:20;;;;;;;2.70;1.10;;;30.90;31.40;;;;;;5526814;22;20797;-96
2022/09/03 12:09:27;;;;;;;2.10;1.40;;;31.30;30.00;;;;;;5373987;22;20056;-96
2022/09/03 12:21:21;;;;;;;3.22;1.10;;;31.50;29.30;;;;;;5030815;28;20057;-96
2022/09/03 12:33:22;;;;;;;7.38;1.50;;;31.90;29.70;;;;;;6158483;22;20109;-95
2022/09/03 12:39:36;;;;;;;1.88;1.10;;;32.10;29.20;;;;;;5551587;22;20798;-95
2022/09/03 12:46:16;;;;;;;3.40;1.15;;;32.00;29.10;;;;;;5111032;28;20059;-96
2022/09/03 12:53:28;;;;;;;2.05;1.10;;;31.90;29.20;;;;;;5050177;28;20052;-96
2022/09/03 13:07:21;;;;;;;4.25;1.27;;;32.30;28.50;;;;;;5128093;28;20037;-95
2022/09/03 13:10:27;;;;;;;1.98;1.15;;;32.40;28.90;;;;;;5097325;28;20047;-96
2022/09/03 13:46:26;;;;;;;1.63;1.30;;;31.80;28.70;;;;;;5025939;28;20045;-96
2022/09/03 13:56:57;;;;;;;5.55;1.38;;;31.30;29.60;;;;;;5038741;28;20032;-94
2022/09/03 14:26:52;;;;;;;7.18;1.55;;;30.80;30.40;;;;;;5041027;28;20092;-96
2022/09/03 14:29:51;;;;;;;5.07;1.45;;;30.80;30.60;;;;;;5003170;28;20049;-94
2022/09/03 16:08:08;;;;;;;2.65;1.50;;;31.10;30.90;;;;;;4921287;29;20136;-91
2022/09/03 16:10:53;;;;;;;;;;;31.40;30.00;;;;;;4886068;29;20181;-92
2022/09/03 16:13:47;;;;;;;3.83;1.83;;;31.40;30.20;;;;;;4888636;29;19923;-95
2022/09/03 16:16:41;;;;;;;3.17;1.33;;;31.00;30.60;;;;;;4902025;29;20040;-94
2022/09/03 16:19:47;;;;;;;3.15;1.30;;;30.70;30.90;;;;;;4893950;29;20051;-96
2022/09/03 16:22:56;;;;;;;2.05;1.20;;;30.60;31.20;;;;;;4900946;29;20795;-94
2022/09/03 16:25:46;;;;;;;4.25;1.50;;;30.40;31.40;;;;;;4891752;29;20051;-93
2022/09/03 16:29:14;;;;;;;2.55;1.50;;;30.30;31.70;;;;;;4906846;29;20080;-96
2022/09/03 16:32:20;;;;;;;3.33;1.30;;;30.10;31.90;;;;;;4882531;29;20440;-96
2022/09/03 16:35:28;;;;;;;4.35;1.83;;;30.00;32.20;;;;;;4883459;29;20056;-96
2022/09/03 16:38:42;;;;;;;3.30;1.27;;;29.90;32.60;;;;;;4887890;29;20087;-96
2022/09/03 16:56:12;;;;;;;3.10;1.58;;;29.30;33.30;;;;;;4825489;29;20531;-94
2022/09/03 17:34:22;;;;;;;1.50;1.30;;;28.60;34.80;;;;;;4804558;29;20049;-96
2022/09/03 17:41:16;;;;;;;2.35;1.35;;;28.70;34.90;;;;;;4787128;30;20493;-95
2022/09/03 23:32:28;;;;;;;4.38;1.80;;;22.50;40.20;;;;;;4944735;29;20223;-95
2022/09/03 23:57:26;;;;;;;5.30;2.67;;;22.10;40.70;;;;;;4984162;28;20538;-94
